Terminal Aerodrome Forecast
Issued by NWS

Home | Current Version | Previous Version | Text Only | Print | Product List | Glossary On
Versions: 1 2 3 4 5 6 7 8 9 10 11 12 13 14 15
000
FTUS45 KTFX 162320
TAFGTF
TAF
KGTF 162320Z 1700/1724 20006KT P6SM FEW025 SCT090
      TEMPO 1700/1704 BKN025
     FM170600 21013G23KT P6SM SKC
     FM171500 22019G31KT P6SM SCT130 BKN250=

USA.gov is the U.S. government's official web portal to all federal, state and local government web resources and services.